sensor_id;sensor_type;location;lat;lon;timestamp;P1;durP1;ratioP1;P2;durP2;ratioP2
60354;SDS011;46198;51.464;-0.066;2022-10-30T00:00:45;14.77;;;3.72;;
60354;SDS011;46198;51.464;-0.066;2022-10-30T00:03:14;13.77;;;3.95;;
60354;SDS011;46198;51.464;-0.066;2022-10-30T00:05:44;14.38;;;4.25;;
60354;SDS011;46198;51.464;-0.066;2022-10-30T00:08:14;16.98;;;3.78;;
60354;SDS011;46198;51.464;-0.066;2022-10-30T00:13:12;12.85;;;4.82;;
60354;SDS011;46198;51.464;-0.066;2022-10-30T00:15:46;12.77;;;4.10;;
60354;SDS011;46198;51.464;-0.066;2022-10-30T00:18:16;17.92;;;5.22;;
60354;SDS011;46198;51.464;-0.066;2022-10-30T00:20:46;10.00;;;4.00;;
60354;SDS011;46198;51.464;-0.066;2022-10-30T00:23:14;17.15;;;3.72;;
60354;SDS011;46198;51.464;-0.066;2022-10-30T00:25:43;14.13;;;4.00;;
60354;SDS011;46198;51.464;-0.066;2022-10-30T00:28:13;10.90;;;4.57;;
60354;SDS011;46198;51.464;-0.066;2022-10-30T00:30:42;17.25;;;3.67;;
60354;SDS011;46198;51.464;-0.066;2022-10-30T00:33:11;10.35;;;3.13;;
60354;SDS011;46198;51.464;-0.066;2022-10-30T00:35:46;16.42;;;3.70;;
60354;SDS011;46198;51.464;-0.066;2022-10-30T00:38:17;17.02;;;3.42;;
60354;SDS011;46198;51.464;-0.066;2022-10-30T00:40:47;13.40;;;3.00;;
60354;SDS011;46198;51.464;-0.066;2022-10-30T00:43:29;12.77;;;3.58;;
60354;SDS011;46198;51.464;-0.066;2022-10-30T00:46:01;14.57;;;3.47;;
60354;SDS011;46198;51.464;-0.066;2022-10-30T00:48:34;11.57;;;3.40;;
60354;SDS011;46198;51.464;-0.066;2022-10-30T00:51:03;12.02;;;2.97;;
60354;SDS011;46198;51.464;-0.066;2022-10-30T00:53:34;15.07;;;3.60;;
60354;SDS011;46198;51.464;-0.066;2022-10-30T00:56:03;11.52;;;3.28;;
60354;SDS011;46198;51.464;-0.066;2022-10-30T00:58:35;15.68;;;3.08;;
60354;SDS011;46198;51.464;-0.066;2022-10-30T01:01:07;14.13;;;3.17;;
60354;SDS011;46198;51.464;-0.066;2022-10-30T01:03:42;14.73;;;3.83;;
60354;SDS011;46198;51.464;-0.066;2022-10-30T01:06:11;17.05;;;5.47;;
60354;SDS011;46198;51.464;-0.066;2022-10-30T01:08:42;15.63;;;3.03;;
60354;SDS011;46198;51.464;-0.066;2022-10-30T01:11:11;15.10;;;3.10;;
60354;SDS011;46198;51.464;-0.066;2022-10-30T01:13:39;11.00;;;3.00;;
60354;SDS011;46198;51.464;-0.066;2022-10-30T01:19:17;13.68;;;2.90;;
60354;SDS011;46198;51.464;-0.066;2022-10-30T01:21:59;16.67;;;3.55;;
60354;SDS011;46198;51.464;-0.066;2022-10-30T01:24:44;15.20;;;4.05;;
60354;SDS011;46198;51.464;-0.066;2022-10-30T01:27:24;16.50;;;3.13;;
60354;SDS011;46198;51.464;-0.066;2022-10-30T01:30:04;13.40;;;4.45;;
60354;SDS011;46198;51.464;-0.066;2022-10-30T01:35:26;11.45;;;2.85;;
60354;SDS011;46198;51.464;-0.066;2022-10-30T01:38:00;9.05;;;2.65;;
60354;SDS011;46198;51.464;-0.066;2022-10-30T01:40:34;10.25;;;3.40;;
60354;SDS011;46198;51.464;-0.066;2022-10-30T01:43:03;11.60;;;2.72;;
60354;SDS011;46198;51.464;-0.066;2022-10-30T01:45:37;13.38;;;2.42;;
60354;SDS011;46198;51.464;-0.066;2022-10-30T01:48:21;17.25;;;3.45;;
60354;SDS011;46198;51.464;-0.066;2022-10-30T01:51:05;17.90;;;2.80;;
60354;SDS011;46198;51.464;-0.066;2022-10-30T01:53:44;15.00;;;2.67;;
60354;SDS011;46198;51.464;-0.066;2022-10-30T01:56:20;11.38;;;2.70;;
60354;SDS011;46198;51.464;-0.066;2022-10-30T01:59:02;10.77;;;2.75;;
60354;SDS011;46198;51.464;-0.066;2022-10-30T02:01:38;13.55;;;2.67;;
60354;SDS011;46198;51.464;-0.066;2022-10-30T02:04:07;14.18;;;3.72;;
60354;SDS011;46198;51.464;-0.066;2022-10-30T02:06:39;12.93;;;3.13;;
60354;SDS011;46198;51.464;-0.066;2022-10-30T02:11:44;12.27;;;2.75;;
60354;SDS011;46198;51.464;-0.066;2022-10-30T02:14:14;16.60;;;2.40;;
60354;SDS011;46198;51.464;-0.066;2022-10-30T02:16:49;10.50;;;2.47;;
60354;SDS011;46198;51.464;-0.066;2022-10-30T02:19:19;10.32;;;3.33;;
60354;SDS011;46198;51.464;-0.066;2022-10-30T02:21:49;10.27;;;4.03;;
60354;SDS011;46198;51.464;-0.066;2022-10-30T02:24:18;15.07;;;4.28;;
60354;SDS011;46198;51.464;-0.066;2022-10-30T02:26:46;15.70;;;6.30;;
60354;SDS011;46198;51.464;-0.066;2022-10-30T02:29:14;17.77;;;5.10;;
60354;SDS011;46198;51.464;-0.066;2022-10-30T02:31:46;16.13;;;4.70;;
60354;SDS011;46198;51.464;-0.066;2022-10-30T02:34:14;14.05;;;4.13;;
60354;SDS011;46198;51.464;-0.066;2022-10-30T02:36:43;11.77;;;3.90;;
60354;SDS011;46198;51.464;-0.066;2022-10-30T02:39:12;13.50;;;3.65;;
60354;SDS011;46198;51.464;-0.066;2022-10-30T02:41:40;12.70;;;3.17;;
60354;SDS011;46198;51.464;-0.066;2022-10-30T02:44:10;13.60;;;3.40;;
60354;SDS011;46198;51.464;-0.066;2022-10-30T02:46:38;11.68;;;3.25;;
60354;SDS011;46198;51.464;-0.066;2022-10-30T02:49:08;11.52;;;2.85;;
60354;SDS011;46198;51.464;-0.066;2022-10-30T02:51:36;11.35;;;2.88;;
60354;SDS011;46198;51.464;-0.066;2022-10-30T02:54:04;20.08;;;3.90;;
60354;SDS011;46198;51.464;-0.066;2022-10-30T02:56:34;14.63;;;2.67;;
60354;SDS011;46198;51.464;-0.066;2022-10-30T02:59:02;9.40;;;2.65;;
60354;SDS011;46198;51.464;-0.066;2022-10-30T03:01:30;11.45;;;2.58;;
60354;SDS011;46198;51.464;-0.066;2022-10-30T03:03:58;14.98;;;2.35;;
60354;SDS011;46198;51.464;-0.066;2022-10-30T03:06:27;17.05;;;3.45;;
60354;SDS011;46198;51.464;-0.066;2022-10-30T03:08:56;12.75;;;3.85;;
60354;SDS011;46198;51.464;-0.066;2022-10-30T03:11:24;11.63;;;2.17;;
60354;SDS011;46198;51.464;-0.066;2022-10-30T03:13:55;10.15;;;2.30;;
60354;SDS011;46198;51.464;-0.066;2022-10-30T03:16:24;12.60;;;3.03;;
60354;SDS011;46198;51.464;-0.066;2022-10-30T03:18:55;10.52;;;3.03;;
60354;SDS011;46198;51.464;-0.066;2022-10-30T03:21:25;10.48;;;2.28;;
60354;SDS011;46198;51.464;-0.066;2022-10-30T03:23:54;13.32;;;2.30;;
60354;SDS011;46198;51.464;-0.066;2022-10-30T03:26:23;11.07;;;2.33;;
60354;SDS011;46198;51.464;-0.066;2022-10-30T03:29:02;13.70;;;2.40;;
60354;SDS011;46198;51.464;-0.066;2022-10-30T03:31:31;7.35;;;1.98;;
60354;SDS011;46198;51.464;-0.066;2022-10-30T03:34:13;11.57;;;2.35;;
60354;SDS011;46198;51.464;-0.066;2022-10-30T03:36:41;5.50;;;1.90;;
60354;SDS011;46198;51.464;-0.066;2022-10-30T03:39:10;11.23;;;2.10;;
60354;SDS011;46198;51.464;-0.066;2022-10-30T03:41:41;13.32;;;2.30;;
60354;SDS011;46198;51.464;-0.066;2022-10-30T03:44:12;10.60;;;2.38;;
60354;SDS011;46198;51.464;-0.066;2022-10-30T03:46:40;14.73;;;2.35;;
60354;SDS011;46198;51.464;-0.066;2022-10-30T03:49:27;14.50;;;2.42;;
60354;SDS011;46198;51.464;-0.066;2022-10-30T03:51:56;8.20;;;2.58;;
60354;SDS011;46198;51.464;-0.066;2022-10-30T03:54:27;13.13;;;2.28;;
60354;SDS011;46198;51.464;-0.066;2022-10-30T03:56:55;12.70;;;2.28;;
60354;SDS011;46198;51.464;-0.066;2022-10-30T04:02:18;13.20;;;2.00;;
60354;SDS011;46198;51.464;-0.066;2022-10-30T04:04:46;7.15;;;1.70;;
60354;SDS011;46198;51.464;-0.066;2022-10-30T04:07:14;13.50;;;2.53;;
60354;SDS011;46198;51.464;-0.066;2022-10-30T04:09:42;8.45;;;2.40;;
60354;SDS011;46198;51.464;-0.066;2022-10-30T04:12:10;14.15;;;3.30;;
60354;SDS011;46198;51.464;-0.066;2022-10-30T04:14:40;11.63;;;2.30;;
60354;SDS011;46198;51.464;-0.066;2022-10-30T04:17:10;11.25;;;2.10;;
60354;SDS011;46198;51.464;-0.066;2022-10-30T04:19:38;10.90;;;2.80;;
60354;SDS011;46198;51.464;-0.066;2022-10-30T04:22:06;8.38;;;2.08;;
60354;SDS011;46198;51.464;-0.066;2022-10-30T04:24:36;14.03;;;2.17;;
60354;SDS011;46198;51.464;-0.066;2022-10-30T04:27:05;13.30;;;1.75;;
60354;SDS011;46198;51.464;-0.066;2022-10-30T04:29:33;9.88;;;2.00;;
60354;SDS011;46198;51.464;-0.066;2022-10-30T04:32:04;9.40;;;2.13;;
60354;SDS011;46198;51.464;-0.066;2022-10-30T04:34:32;12.02;;;2.42;;
60354;SDS011;46198;51.464;-0.066;2022-10-30T04:37:02;9.85;;;2.00;;
60354;SDS011;46198;51.464;-0.066;2022-10-30T04:39:31;11.02;;;1.80;;
60354;SDS011;46198;51.464;-0.066;2022-10-30T04:42:09;13.35;;;2.33;;
60354;SDS011;46198;51.464;-0.066;2022-10-30T04:44:39;15.13;;;2.30;;
60354;SDS011;46198;51.464;-0.066;2022-10-30T04:47:09;13.05;;;2.17;;
60354;SDS011;46198;51.464;-0.066;2022-10-30T04:49:37;13.75;;;3.38;;
60354;SDS011;46198;51.464;-0.066;2022-10-30T04:52:05;12.15;;;1.70;;
60354;SDS011;46198;51.464;-0.066;2022-10-30T04:54:33;13.30;;;2.00;;
60354;SDS011;46198;51.464;-0.066;2022-10-30T04:57:01;13.68;;;2.00;;
60354;SDS011;46198;51.464;-0.066;2022-10-30T04:59:29;9.02;;;2.15;;
60354;SDS011;46198;51.464;-0.066;2022-10-30T05:01:57;15.73;;;2.10;;
60354;SDS011;46198;51.464;-0.066;2022-10-30T05:04:27;9.02;;;1.92;;
60354;SDS011;46198;51.464;-0.066;2022-10-30T05:06:55;12.75;;;2.58;;
60354;SDS011;46198;51.464;-0.066;2022-10-30T05:09:23;13.70;;;2.67;;
60354;SDS011;46198;51.464;-0.066;2022-10-30T05:11:51;12.93;;;2.85;;
60354;SDS011;46198;51.464;-0.066;2022-10-30T05:14:27;16.88;;;2.22;;
60354;SDS011;46198;51.464;-0.066;2022-10-30T05:16:56;14.13;;;3.17;;
60354;SDS011;46198;51.464;-0.066;2022-10-30T05:19:24;11.15;;;2.67;;
60354;SDS011;46198;51.464;-0.066;2022-10-30T05:21:56;16.63;;;3.75;;
60354;SDS011;46198;51.464;-0.066;2022-10-30T05:24:24;17.17;;;2.58;;
60354;SDS011;46198;51.464;-0.066;2022-10-30T05:26:53;11.93;;;2.17;;
60354;SDS011;46198;51.464;-0.066;2022-10-30T05:29:21;13.10;;;2.60;;
60354;SDS011;46198;51.464;-0.066;2022-10-30T05:31:49;13.63;;;2.00;;
60354;SDS011;46198;51.464;-0.066;2022-10-30T05:34:38;16.17;;;2.85;;
60354;SDS011;46198;51.464;-0.066;2022-10-30T05:37:07;14.95;;;2.88;;
60354;SDS011;46198;51.464;-0.066;2022-10-30T05:39:35;12.25;;;2.67;;
60354;SDS011;46198;51.464;-0.066;2022-10-30T05:42:10;11.90;;;2.42;;
60354;SDS011;46198;51.464;-0.066;2022-10-30T05:44:42;15.32;;;2.85;;
60354;SDS011;46198;51.464;-0.066;2022-10-30T05:47:32;9.45;;;2.55;;
60354;SDS011;46198;51.464;-0.066;2022-10-30T05:50:00;13.95;;;2.97;;
60354;SDS011;46198;51.464;-0.066;2022-10-30T05:52:30;13.55;;;2.28;;
60354;SDS011;46198;51.464;-0.066;2022-10-30T05:54:58;18.10;;;2.43;;
60354;SDS011;46198;51.464;-0.066;2022-10-30T05:57:35;7.55;;;1.73;;
60354;SDS011;46198;51.464;-0.066;2022-10-30T06:00:04;14.23;;;2.60;;
60354;SDS011;46198;51.464;-0.066;2022-10-30T06:02:40;11.77;;;2.22;;
60354;SDS011;46198;51.464;-0.066;2022-10-30T06:05:11;10.60;;;1.92;;
60354;SDS011;46198;51.464;-0.066;2022-10-30T06:07:40;13.85;;;2.63;;
60354;SDS011;46198;51.464;-0.066;2022-10-30T06:10:08;14.85;;;2.40;;
60354;SDS011;46198;51.464;-0.066;2022-10-30T06:12:50;13.57;;;2.13;;
60354;SDS011;46198;51.464;-0.066;2022-10-30T06:15:34;9.95;;;1.67;;
60354;SDS011;46198;51.464;-0.066;2022-10-30T06:18:02;11.90;;;1.90;;
60354;SDS011;46198;51.464;-0.066;2022-10-30T06:20:53;12.48;;;2.40;;
60354;SDS011;46198;51.464;-0.066;2022-10-30T06:23:26;11.65;;;2.28;;
60354;SDS011;46198;51.464;-0.066;2022-10-30T06:26:00;12.43;;;2.15;;
60354;SDS011;46198;51.464;-0.066;2022-10-30T06:28:32;12.60;;;2.35;;
60354;SDS011;46198;51.464;-0.066;2022-10-30T06:31:01;18.20;;;3.05;;
60354;SDS011;46198;51.464;-0.066;2022-10-30T06:33:30;12.65;;;2.33;;
60354;SDS011;46198;51.464;-0.066;2022-10-30T06:35:59;13.93;;;2.08;;
60354;SDS011;46198;51.464;-0.066;2022-10-30T06:38:28;11.05;;;1.92;;
60354;SDS011;46198;51.464;-0.066;2022-10-30T06:40:59;10.30;;;2.15;;
60354;SDS011;46198;51.464;-0.066;2022-10-30T06:43:42;13.80;;;2.22;;
60354;SDS011;46198;51.464;-0.066;2022-10-30T06:46:20;16.30;;;2.40;;
60354;SDS011;46198;51.464;-0.066;2022-10-30T06:48:54;15.02;;;2.35;;
60354;SDS011;46198;51.464;-0.066;2022-10-30T06:51:22;13.07;;;2.30;;
60354;SDS011;46198;51.464;-0.066;2022-10-30T06:53:54;10.17;;;2.90;;
60354;SDS011;46198;51.464;-0.066;2022-10-30T06:56:37;11.63;;;1.98;;
60354;SDS011;46198;51.464;-0.066;2022-10-30T06:59:17;9.17;;;2.10;;
60354;SDS011;46198;51.464;-0.066;2022-10-30T07:01:52;15.23;;;2.75;;
60354;SDS011;46198;51.464;-0.066;2022-10-30T07:04:32;12.98;;;2.90;;
60354;SDS011;46198;51.464;-0.066;2022-10-30T07:07:01;15.38;;;2.63;;
60354;SDS011;46198;51.464;-0.066;2022-10-30T07:09:31;22.63;;;3.10;;
60354;SDS011;46198;51.464;-0.066;2022-10-30T07:11:59;15.02;;;3.35;;
60354;SDS011;46198;51.464;-0.066;2022-10-30T07:14:38;12.43;;;2.88;;
60354;SDS011;46198;51.464;-0.066;2022-10-30T07:17:09;14.88;;;2.60;;
60354;SDS011;46198;51.464;-0.066;2022-10-30T07:19:38;12.77;;;2.67;;
60354;SDS011;46198;51.464;-0.066;2022-10-30T07:22:07;14.40;;;2.22;;
60354;SDS011;46198;51.464;-0.066;2022-10-30T07:24:38;17.90;;;2.83;;
60354;SDS011;46198;51.464;-0.066;2022-10-30T07:27:42;13.32;;;2.47;;
60354;SDS011;46198;51.464;-0.066;2022-10-30T07:30:46;13.50;;;2.33;;
60354;SDS011;46198;51.464;-0.066;2022-10-30T07:33:37;15.07;;;2.55;;
60354;SDS011;46198;51.464;-0.066;2022-10-30T07:36:16;14.20;;;2.55;;
60354;SDS011;46198;51.464;-0.066;2022-10-30T07:39:04;11.02;;;2.10;;
60354;SDS011;46198;51.464;-0.066;2022-10-30T07:42:00;10.80;;;2.17;;
60354;SDS011;46198;51.464;-0.066;2022-10-30T07:44:58;15.07;;;1.98;;
60354;SDS011;46198;51.464;-0.066;2022-10-30T07:47:51;10.90;;;1.65;;
60354;SDS011;46198;51.464;-0.066;2022-10-30T07:50:38;15.25;;;2.58;;
60354;SDS011;46198;51.464;-0.066;2022-10-30T07:53:07;10.60;;;2.90;;
60354;SDS011;46198;51.464;-0.066;2022-10-30T07:55:35;10.10;;;1.83;;
60354;SDS011;46198;51.464;-0.066;2022-10-30T07:58:33;16.30;;;2.50;;
60354;SDS011;46198;51.464;-0.066;2022-10-30T08:01:29;17.98;;;1.92;;
60354;SDS011;46198;51.464;-0.066;2022-10-30T08:04:09;7.93;;;1.63;;
60354;SDS011;46198;51.464;-0.066;2022-10-30T08:06:39;11.63;;;2.30;;
60354;SDS011;46198;51.464;-0.066;2022-10-30T08:09:07;9.02;;;1.63;;
60354;SDS011;46198;51.464;-0.066;2022-10-30T08:11:35;10.32;;;1.98;;
60354;SDS011;46198;51.464;-0.066;2022-10-30T08:14:05;11.02;;;1.50;;
60354;SDS011;46198;51.464;-0.066;2022-10-30T08:16:33;11.90;;;3.13;;
60354;SDS011;46198;51.464;-0.066;2022-10-30T08:19:01;9.65;;;2.00;;
60354;SDS011;46198;51.464;-0.066;2022-10-30T08:21:30;6.65;;;1.77;;
60354;SDS011;46198;51.464;-0.066;2022-10-30T08:24:03;11.15;;;1.75;;
60354;SDS011;46198;51.464;-0.066;2022-10-30T08:26:33;11.45;;;2.45;;
60354;SDS011;46198;51.464;-0.066;2022-10-30T08:29:02;13.82;;;2.15;;
60354;SDS011;46198;51.464;-0.066;2022-10-30T08:31:32;9.77;;;1.55;;
60354;SDS011;46198;51.464;-0.066;2022-10-30T08:34:00;10.10;;;2.00;;
60354;SDS011;46198;51.464;-0.066;2022-10-30T08:36:32;11.43;;;1.80;;
60354;SDS011;46198;51.464;-0.066;2022-10-30T08:39:01;13.20;;;2.00;;
60354;SDS011;46198;51.464;-0.066;2022-10-30T08:41:41;8.63;;;2.42;;
60354;SDS011;46198;51.464;-0.066;2022-10-30T08:44:09;11.93;;;2.10;;
60354;SDS011;46198;51.464;-0.066;2022-10-30T08:46:59;8.40;;;1.85;;
60354;SDS011;46198;51.464;-0.066;2022-10-30T08:49:27;11.80;;;1.80;;
60354;SDS011;46198;51.464;-0.066;2022-10-30T08:51:58;7.15;;;2.13;;
60354;SDS011;46198;51.464;-0.066;2022-10-30T08:54:27;13.32;;;2.42;;
60354;SDS011;46198;51.464;-0.066;2022-10-30T08:56:55;14.10;;;1.88;;
60354;SDS011;46198;51.464;-0.066;2022-10-30T08:59:23;7.47;;;1.70;;
60354;SDS011;46198;51.464;-0.066;2022-10-30T09:01:55;11.38;;;2.17;;
60354;SDS011;46198;51.464;-0.066;2022-10-30T09:05:00;9.65;;;1.73;;
60354;SDS011;46198;51.464;-0.066;2022-10-30T09:08:00;12.35;;;2.10;;
60354;SDS011;46198;51.464;-0.066;2022-10-30T09:11:01;9.07;;;1.40;;
60354;SDS011;46198;51.464;-0.066;2022-10-30T09:13:30;7.28;;;1.48;;
60354;SDS011;46198;51.464;-0.066;2022-10-30T09:15:59;6.45;;;1.63;;
60354;SDS011;46198;51.464;-0.066;2022-10-30T09:18:30;10.10;;;1.58;;
60354;SDS011;46198;51.464;-0.066;2022-10-30T09:21:02;14.32;;;2.42;;
60354;SDS011;46198;51.464;-0.066;2022-10-30T09:23:36;5.72;;;1.23;;
60354;SDS011;46198;51.464;-0.066;2022-10-30T09:26:23;15.23;;;1.77;;
60354;SDS011;46198;51.464;-0.066;2022-10-30T09:29:09;12.18;;;2.05;;
60354;SDS011;46198;51.464;-0.066;2022-10-30T09:31:56;7.80;;;1.65;;
60354;SDS011;46198;51.464;-0.066;2022-10-30T09:34:29;4.10;;;1.75;;
60354;SDS011;46198;51.464;-0.066;2022-10-30T09:37:04;7.70;;;2.03;;
60354;SDS011;46198;51.464;-0.066;2022-10-30T09:39:36;10.20;;;1.88;;
60354;SDS011;46198;51.464;-0.066;2022-10-30T09:42:14;12.32;;;1.77;;
60354;SDS011;46198;51.464;-0.066;2022-10-30T09:45:04;8.65;;;1.98;;
60354;SDS011;46198;51.464;-0.066;2022-10-30T09:48:03;7.80;;;2.03;;
60354;SDS011;46198;51.464;-0.066;2022-10-30T09:50:57;9.77;;;2.08;;
60354;SDS011;46198;51.464;-0.066;2022-10-30T09:53:40;14.00;;;1.88;;
60354;SDS011;46198;51.464;-0.066;2022-10-30T09:56:26;11.15;;;2.13;;
60354;SDS011;46198;51.464;-0.066;2022-10-30T09:59:01;4.63;;;1.58;;
60354;SDS011;46198;51.464;-0.066;2022-10-30T10:01:44;11.32;;;1.45;;
60354;SDS011;46198;51.464;-0.066;2022-10-30T10:04:20;10.75;;;1.83;;
60354;SDS011;46198;51.464;-0.066;2022-10-30T10:07:17;8.75;;;1.40;;
60354;SDS011;46198;51.464;-0.066;2022-10-30T10:10:03;9.00;;;1.45;;
60354;SDS011;46198;51.464;-0.066;2022-10-30T10:12:47;6.07;;;2.10;;
60354;SDS011;46198;51.464;-0.066;2022-10-30T10:15:30;7.07;;;2.33;;
60354;SDS011;46198;51.464;-0.066;2022-10-30T10:18:05;6.18;;;2.15;;
60354;SDS011;46198;51.464;-0.066;2022-10-30T10:20:39;13.30;;;1.40;;
60354;SDS011;46198;51.464;-0.066;2022-10-30T10:23:13;5.72;;;1.40;;
60354;SDS011;46198;51.464;-0.066;2022-10-30T10:25:48;10.90;;;1.30;;
60354;SDS011;46198;51.464;-0.066;2022-10-30T10:28:24;6.22;;;1.45;;
60354;SDS011;46198;51.464;-0.066;2022-10-30T10:31:04;9.30;;;1.88;;
60354;SDS011;46198;51.464;-0.066;2022-10-30T10:33:46;6.97;;;1.20;;
60354;SDS011;46198;51.464;-0.066;2022-10-30T10:36:26;13.10;;;2.58;;
60354;SDS011;46198;51.464;-0.066;2022-10-30T10:39:06;5.25;;;1.67;;
60354;SDS011;46198;51.464;-0.066;2022-10-30T10:41:50;9.23;;;1.48;;
60354;SDS011;46198;51.464;-0.066;2022-10-30T10:47:17;5.30;;;1.05;;
60354;SDS011;46198;51.464;-0.066;2022-10-30T10:52:51;6.25;;;1.35;;
60354;SDS011;46198;51.464;-0.066;2022-10-30T10:55:28;5.63;;;1.38;;
60354;SDS011;46198;51.464;-0.066;2022-10-30T10:58:05;6.85;;;1.33;;
60354;SDS011;46198;51.464;-0.066;2022-10-30T11:00:36;8.68;;;1.25;;
60354;SDS011;46198;51.464;-0.066;2022-10-30T11:03:08;9.85;;;1.33;;
60354;SDS011;46198;51.464;-0.066;2022-10-30T11:05:45;5.82;;;1.00;;
60354;SDS011;46198;51.464;-0.066;2022-10-30T11:08:18;8.07;;;2.35;;
60354;SDS011;46198;51.464;-0.066;2022-10-30T11:10:48;4.47;;;1.23;;
60354;SDS011;46198;51.464;-0.066;2022-10-30T11:13:23;7.18;;;1.45;;
60354;SDS011;46198;51.464;-0.066;2022-10-30T11:15:55;4.88;;;1.38;;
60354;SDS011;46198;51.464;-0.066;2022-10-30T11:18:31;6.18;;;1.08;;
60354;SDS011;46198;51.464;-0.066;2022-10-30T11:21:02;4.95;;;0.98;;
60354;SDS011;46198;51.464;-0.066;2022-10-30T11:23:38;11.80;;;1.50;;
60354;SDS011;46198;51.464;-0.066;2022-10-30T11:26:23;5.93;;;1.10;;
60354;SDS011;46198;51.464;-0.066;2022-10-30T11:29:00;9.35;;;1.42;;
60354;SDS011;46198;51.464;-0.066;2022-10-30T11:31:32;4.03;;;1.30;;
60354;SDS011;46198;51.464;-0.066;2022-10-30T11:34:12;7.93;;;1.40;;
60354;SDS011;46198;51.464;-0.066;2022-10-30T11:36:50;6.50;;;1.30;;
60354;SDS011;46198;51.464;-0.066;2022-10-30T11:39:20;1.98;;;1.20;;
60354;SDS011;46198;51.464;-0.066;2022-10-30T11:41:53;5.95;;;1.40;;
60354;SDS011;46198;51.464;-0.066;2022-10-30T11:44:31;4.13;;;1.17;;
60354;SDS011;46198;51.464;-0.066;2022-10-30T11:47:02;4.88;;;1.38;;
60354;SDS011;46198;51.464;-0.066;2022-10-30T11:49:37;6.30;;;1.35;;
60354;SDS011;46198;51.464;-0.066;2022-10-30T11:52:11;3.80;;;1.02;;
60354;SDS011;46198;51.464;-0.066;2022-10-30T11:54:42;5.13;;;1.20;;
60354;SDS011;46198;51.464;-0.066;2022-10-30T11:57:17;7.20;;;1.95;;
60354;SDS011;46198;51.464;-0.066;2022-10-30T11:59:51;9.55;;;1.30;;
60354;SDS011;46198;51.464;-0.066;2022-10-30T12:02:39;8.63;;;1.35;;
60354;SDS011;46198;51.464;-0.066;2022-10-30T12:08:19;4.88;;;1.10;;
60354;SDS011;46198;51.464;-0.066;2022-10-30T12:10:58;5.10;;;1.10;;
60354;SDS011;46198;51.464;-0.066;2022-10-30T12:13:30;6.57;;;1.02;;
60354;SDS011;46198;51.464;-0.066;2022-10-30T12:18:51;2.60;;;1.08;;
60354;SDS011;46198;51.464;-0.066;2022-10-30T12:21:24;8.98;;;1.33;;
60354;SDS011;46198;51.464;-0.066;2022-10-30T12:23:54;6.10;;;1.63;;
60354;SDS011;46198;51.464;-0.066;2022-10-30T12:26:33;6.80;;;1.52;;
60354;SDS011;46198;51.464;-0.066;2022-10-30T12:29:04;7.10;;;1.15;;
60354;SDS011;46198;51.464;-0.066;2022-10-30T12:31:41;2.90;;;1.70;;
60354;SDS011;46198;51.464;-0.066;2022-10-30T12:34:21;8.32;;;2.45;;
60354;SDS011;46198;51.464;-0.066;2022-10-30T12:36:58;5.63;;;1.55;;
60354;SDS011;46198;51.464;-0.066;2022-10-30T12:39:34;4.22;;;0.90;;
60354;SDS011;46198;51.464;-0.066;2022-10-30T12:42:12;6.38;;;1.70;;
60354;SDS011;46198;51.464;-0.066;2022-10-30T12:44:43;8.63;;;1.55;;
60354;SDS011;46198;51.464;-0.066;2022-10-30T12:47:18;5.57;;;1.10;;
60354;SDS011;46198;51.464;-0.066;2022-10-30T12:49:53;6.70;;;1.20;;
60354;SDS011;46198;51.464;-0.066;2022-10-30T12:52:28;6.90;;;1.10;;
60354;SDS011;46198;51.464;-0.066;2022-10-30T12:55:02;7.93;;;1.63;;
60354;SDS011;46198;51.464;-0.066;2022-10-30T12:57:37;16.63;;;5.40;;
60354;SDS011;46198;51.464;-0.066;2022-10-30T13:00:10;7.13;;;1.67;;
60354;SDS011;46198;51.464;-0.066;2022-10-30T13:02:48;7.53;;;1.30;;
60354;SDS011;46198;51.464;-0.066;2022-10-30T13:05:27;9.15;;;1.55;;
60354;SDS011;46198;51.464;-0.066;2022-10-30T13:08:09;11.65;;;2.22;;
60354;SDS011;46198;51.464;-0.066;2022-10-30T13:10:45;10.07;;;1.45;;
60354;SDS011;46198;51.464;-0.066;2022-10-30T13:13:17;8.82;;;1.75;;
60354;SDS011;46198;51.464;-0.066;2022-10-30T13:15:49;5.88;;;1.50;;
60354;SDS011;46198;51.464;-0.066;2022-10-30T13:20:55;5.65;;;1.35;;
60354;SDS011;46198;51.464;-0.066;2022-10-30T13:23:30;9.60;;;1.77;;
60354;SDS011;46198;51.464;-0.066;2022-10-30T13:26:07;5.07;;;1.15;;
60354;SDS011;46198;51.464;-0.066;2022-10-30T13:28:42;6.53;;;1.33;;
60354;SDS011;46198;51.464;-0.066;2022-10-30T13:31:16;7.47;;;1.58;;
60354;SDS011;46198;51.464;-0.066;2022-10-30T13:33:53;7.07;;;1.92;;
60354;SDS011;46198;51.464;-0.066;2022-10-30T13:36:29;4.00;;;1.60;;
60354;SDS011;46198;51.464;-0.066;2022-10-30T13:39:10;8.90;;;1.50;;
60354;SDS011;46198;51.464;-0.066;2022-10-30T13:41:52;6.28;;;2.38;;
60354;SDS011;46198;51.464;-0.066;2022-10-30T13:44:32;6.53;;;1.85;;
60354;SDS011;46198;51.464;-0.066;2022-10-30T13:47:12;3.80;;;1.20;;
60354;SDS011;46198;51.464;-0.066;2022-10-30T13:49:54;6.97;;;1.63;;
60354;SDS011;46198;51.464;-0.066;2022-10-30T13:52:37;16.30;;;4.55;;
60354;SDS011;46198;51.464;-0.066;2022-10-30T13:55:13;7.00;;;1.50;;
60354;SDS011;46198;51.464;-0.066;2022-10-30T13:57:47;11.40;;;1.60;;
60354;SDS011;46198;51.464;-0.066;2022-10-30T14:00:21;6.07;;;1.45;;
60354;SDS011;46198;51.464;-0.066;2022-10-30T14:03:10;5.68;;;1.50;;
60354;SDS011;46198;51.464;-0.066;2022-10-30T14:05:45;6.32;;;1.38;;
60354;SDS011;46198;51.464;-0.066;2022-10-30T14:08:20;7.18;;;1.38;;
60354;SDS011;46198;51.464;-0.066;2022-10-30T14:10:57;6.78;;;1.38;;
60354;SDS011;46198;51.464;-0.066;2022-10-30T14:13:27;9.38;;;1.52;;
60354;SDS011;46198;51.464;-0.066;2022-10-30T14:15:59;6.60;;;1.58;;
60354;SDS011;46198;51.464;-0.066;2022-10-30T14:18:30;7.80;;;1.27;;
60354;SDS011;46198;51.464;-0.066;2022-10-30T14:24:20;9.50;;;2.22;;
60354;SDS011;46198;51.464;-0.066;2022-10-30T14:27:07;14.00;;;4.70;;
60354;SDS011;46198;51.464;-0.066;2022-10-30T14:29:44;7.78;;;1.92;;
60354;SDS011;46198;51.464;-0.066;2022-10-30T14:38:23;4.03;;;1.58;;
60354;SDS011;46198;51.464;-0.066;2022-10-30T14:40:58;9.82;;;1.67;;
60354;SDS011;46198;51.464;-0.066;2022-10-30T14:43:40;4.22;;;1.40;;
60354;SDS011;46198;51.464;-0.066;2022-10-30T14:46:17;9.40;;;1.67;;
60354;SDS011;46198;51.464;-0.066;2022-10-30T14:48:55;9.50;;;1.55;;
60354;SDS011;46198;51.464;-0.066;2022-10-30T14:51:34;6.10;;;1.40;;
60354;SDS011;46198;51.464;-0.066;2022-10-30T14:54:11;4.70;;;1.55;;
60354;SDS011;46198;51.464;-0.066;2022-10-30T14:56:45;7.03;;;1.23;;
60354;SDS011;46198;51.464;-0.066;2022-10-30T14:59:22;7.03;;;1.25;;
60354;SDS011;46198;51.464;-0.066;2022-10-30T15:01:59;8.43;;;1.58;;
60354;SDS011;46198;51.464;-0.066;2022-10-30T15:05:04;5.68;;;1.40;;
60354;SDS011;46198;51.464;-0.066;2022-10-30T15:07:45;7.68;;;1.52;;
60354;SDS011;46198;51.464;-0.066;2022-10-30T15:10:24;9.77;;;2.80;;
60354;SDS011;46198;51.464;-0.066;2022-10-30T15:13:03;7.78;;;1.70;;
60354;SDS011;46198;51.464;-0.066;2022-10-30T15:15:36;5.25;;;1.38;;
60354;SDS011;46198;51.464;-0.066;2022-10-30T15:18:07;7.35;;;1.77;;
60354;SDS011;46198;51.464;-0.066;2022-10-30T15:20:37;5.43;;;1.70;;
60354;SDS011;46198;51.464;-0.066;2022-10-30T15:23:11;3.80;;;1.48;;
60354;SDS011;46198;51.464;-0.066;2022-10-30T15:25:46;14.57;;;3.88;;
60354;SDS011;46198;51.464;-0.066;2022-10-30T15:28:18;16.48;;;8.13;;
60354;SDS011;46198;51.464;-0.066;2022-10-30T15:33:27;7.78;;;2.47;;
60354;SDS011;46198;51.464;-0.066;2022-10-30T15:35:58;8.10;;;1.80;;
60354;SDS011;46198;51.464;-0.066;2022-10-30T15:38:26;9.40;;;1.95;;
60354;SDS011;46198;51.464;-0.066;2022-10-30T15:41:01;8.50;;;2.28;;
60354;SDS011;46198;51.464;-0.066;2022-10-30T15:43:40;6.80;;;1.88;;
60354;SDS011;46198;51.464;-0.066;2022-10-30T15:46:10;9.82;;;1.70;;
60354;SDS011;46198;51.464;-0.066;2022-10-30T15:48:43;10.90;;;3.30;;